Terminal Aerodrome Forecast
Issued by NWS

Home | Current Version | Previous Version | Text Only | Print | Product List | Glossary On
Versions: 1 2 3 4 5 6 7 8 9 10 11 12 13 14 15 16 17 18 19 20 21 22 23 24 25 26 27 28 29 30
909
FTUS43 KLOT 271618 AAB
TAFMDW
TAF AMD
KMDW 271618Z 2716/2812 19011G18KT P6SM FEW020 SCT100 BKN200
     FM271900 17011KT P6SM VCTS BKN040CB BKN250
     FM280000 18009KT P6SM SCT040 BKN120
      TEMPO 2800/2803 4SM -SHRA=

USA.gov is the U.S. government's official web portal to all federal, state and local government web resources and services.